CSH9101 ZSHC-ZBAD
Flight info
| Callsign | CSH9101 |
|---|---|
| Flight time | N/A |
| Altitude | 36100 |
| Route | NIVIK9D NIVIK W135 DOGVI A470 OF/K0865S1160 A470 DPX A593 DALIM W157 BEKDO/K0856S1130 W157 AVBOX AVBOX5L |
| Aircraft | B738/M-SDE2E3FGHIRWXY/LB1 |
Departure
| Time | 2026-04-30 13:58 |
|---|---|
| Airport | Hangzhou Xiaoshan International Airport (ZSHC) |
Arrival
| Time | N/A |
|---|---|
| Airport | Beijing Daxing International Airport (ZBAD) |
| Time | Latitude | Longitude | Altitude | Speed | Heading |
|---|---|---|---|---|---|
| 2026-04-30 13:28 | 30.23957 | 120.43509 | 29 ft | 0 kts | 296° |
| 2026-04-30 13:40 | 30.23946 | 120.43533 | 29 ft | 4 kts | 302° |
| 2026-04-30 13:40 | 30.23930 | 120.43558 | 29 ft | 4 kts | 313° |
| 2026-04-30 13:41 | 30.23912 | 120.43577 | 29 ft | 2 kts | 323° |
| 2026-04-30 13:41 | 30.23908 | 120.43581 | 31 ft | 0 kts | 323° |
| 2026-04-30 13:45 | 30.23914 | 120.43585 | 30 ft | 1 kts | 45° |
| 2026-04-30 13:45 | 30.23918 | 120.43613 | 31 ft | 7 kts | 76° |
| 2026-04-30 13:45 | 30.23954 | 120.43643 | 31 ft | 7 kts | 15° |
| 2026-04-30 13:46 | 30.23980 | 120.43653 | 31 ft | 0 kts | 18° |
| 2026-04-30 13:47 | 30.23981 | 120.43655 | 31 ft | 1 kts | 47° |
| 2026-04-30 13:47 | 30.23978 | 120.43670 | 31 ft | 5 kts | 107° |
| 2026-04-30 13:47 | 30.23968 | 120.43728 | 31 ft | 9 kts | 84° |
| 2026-04-30 13:47 | 30.24010 | 120.43758 | 31 ft | 9 kts | 336° |
| 2026-04-30 13:48 | 30.24063 | 120.43726 | 31 ft | 8 kts | 333° |
| 2026-04-30 13:48 | 30.24114 | 120.43697 | 31 ft | 8 kts | 333° |
| 2026-04-30 13:48 | 30.24163 | 120.43668 | 31 ft | 8 kts | 332° |
| 2026-04-30 13:48 | 30.24211 | 120.43639 | 31 ft | 8 kts | 334° |
| 2026-04-30 13:49 | 30.24264 | 120.43609 | 31 ft | 10 kts | 333° |
| 2026-04-30 13:49 | 30.24334 | 120.43567 | 31 ft | 13 kts | 333° |
| 2026-04-30 13:49 | 30.24424 | 120.43514 | 30 ft | 16 kts | 333° |
| 2026-04-30 13:49 | 30.24523 | 120.43457 | 31 ft | 16 kts | 333° |
| 2026-04-30 13:50 | 30.24618 | 120.43399 | 31 ft | 15 kts | 325° |
| 2026-04-30 13:50 | 30.24574 | 120.43193 | 31 ft | 15 kts | 243° |
| 2026-04-30 13:50 | 30.24519 | 120.43068 | 31 ft | 20 kts | 243° |
| 2026-04-30 13:51 | 30.24448 | 120.42907 | 31 ft | 25 kts | 243° |
| 2026-04-30 13:51 | 30.24364 | 120.42716 | 31 ft | 27 kts | 243° |
| 2026-04-30 13:51 | 30.24281 | 120.42530 | 31 ft | 25 kts | 243° |
| 2026-04-30 13:51 | 30.24204 | 120.42356 | 31 ft | 23 kts | 243° |
| 2026-04-30 13:52 | 30.24132 | 120.42192 | 31 ft | 23 kts | 243° |
| 2026-04-30 13:52 | 30.24062 | 120.42033 | 31 ft | 22 kts | 243° |
| 2026-04-30 13:52 | 30.23993 | 120.41879 | 31 ft | 21 kts | 243° |
| 2026-04-30 13:52 | 30.23927 | 120.41729 | 31 ft | 21 kts | 243° |
| 2026-04-30 13:53 | 30.23862 | 120.41584 | 31 ft | 20 kts | 243° |
| 2026-04-30 13:53 | 30.23800 | 120.41443 | 31 ft | 19 kts | 243° |
| 2026-04-30 13:53 | 30.23740 | 120.41306 | 31 ft | 19 kts | 243° |
| 2026-04-30 13:53 | 30.23681 | 120.41174 | 31 ft | 18 kts | 243° |
| 2026-04-30 13:54 | 30.23628 | 120.41054 | 31 ft | 10 kts | 243° |
| 2026-04-30 13:54 | 30.23606 | 120.40985 | 31 ft | 9 kts | 276° |
| 2026-04-30 13:54 | 30.23652 | 120.40942 | 31 ft | 9 kts | 341° |
| 2026-04-30 13:54 | 30.23687 | 120.40923 | 32 ft | 0 kts | 334° |
| 2026-04-30 13:56 | 30.23688 | 120.40923 | 32 ft | 1 kts | 334° |
| 2026-04-30 13:56 | 30.23720 | 120.40904 | 32 ft | 6 kts | 334° |
| 2026-04-30 13:56 | 30.23765 | 120.40879 | 33 ft | 9 kts | 335° |
| 2026-04-30 13:57 | 30.23816 | 120.40853 | 33 ft | 2 kts | 335° |
| 2026-04-30 13:57 | 30.23831 | 120.40846 | 33 ft | 3 kts | 355° |
| 2026-04-30 13:57 | 30.23839 | 120.40864 | 33 ft | 3 kts | 74° |
| 2026-04-30 13:57 | 30.23847 | 120.40889 | 33 ft | 7 kts | 66° |
| 2026-04-30 13:58 | 30.23988 | 120.41209 | 31 ft | 86 kts | 63° |
| 2026-04-30 13:58 | 30.24872 | 120.43247 | 737 ft | 163 kts | 63° |
| 2026-04-30 13:58 | 30.25374 | 120.44420 | 1695 ft | 163 kts | 63° |
| 2026-04-30 13:59 | 30.25909 | 120.45644 | 2389 ft | 179 kts | 61° |
| 2026-04-30 13:59 | 30.26508 | 120.46968 | 3154 ft | 191 kts | 60° |
| 2026-04-30 13:59 | 30.27167 | 120.48426 | 3599 ft | 216 kts | 60° |
| 2026-04-30 13:59 | 30.27872 | 120.49997 | 3876 ft | 222 kts | 60° |
| 2026-04-30 14:00 | 30.28577 | 120.51578 | 3889 ft | 222 kts | 60° |
| 2026-04-30 14:00 | 30.29999 | 120.54784 | 4190 ft | 228 kts | 59° |
| 2026-04-30 14:00 | 30.30717 | 120.56408 | 5016 ft | 226 kts | 58° |
| 2026-04-30 14:01 | 30.31437 | 120.58036 | 5855 ft | 228 kts | 58° |
| 2026-04-30 14:01 | 30.32160 | 120.59659 | 6781 ft | 226 kts | 54° |
| 2026-04-30 14:01 | 30.33164 | 120.61018 | 7440 ft | 221 kts | 29° |
| 2026-04-30 14:01 | 30.34538 | 120.61691 | 7810 ft | 212 kts | 4° |
| 2026-04-30 14:02 | 30.35980 | 120.61635 | 7855 ft | 206 kts | 340° |
| 2026-04-30 14:02 | 30.37201 | 120.60753 | 7955 ft | 216 kts | 317° |
| 2026-04-30 14:02 | 30.38223 | 120.59318 | 8205 ft | 247 kts | 306° |
| 2026-04-30 14:02 | 30.39192 | 120.57615 | 8902 ft | 257 kts | 304° |
| 2026-04-30 14:03 | 30.40150 | 120.55864 | 9897 ft | 257 kts | 303° |
| 2026-04-30 14:03 | 30.41111 | 120.54105 | 10811 ft | 258 kts | 303° |
| 2026-04-30 14:03 | 30.42079 | 120.52343 | 11693 ft | 260 kts | 303° |
| 2026-04-30 14:03 | 30.43058 | 120.50572 | 12575 ft | 262 kts | 303° |
| 2026-04-30 14:04 | 30.44047 | 120.48790 | 13466 ft | 264 kts | 303° |
| 2026-04-30 14:04 | 30.45047 | 120.46994 | 14309 ft | 266 kts | 303° |
| 2026-04-30 14:04 | 30.46054 | 120.45189 | 15122 ft | 267 kts | 302° |
| 2026-04-30 14:04 | 30.47050 | 120.43408 | 15937 ft | 268 kts | 302° |
| 2026-04-30 14:05 | 30.48067 | 120.41590 | 16729 ft | 270 kts | 302° |
| 2026-04-30 14:05 | 30.49094 | 120.39755 | 17428 ft | 273 kts | 302° |
| 2026-04-30 14:05 | 30.50131 | 120.37902 | 17783 ft | 275 kts | 302° |
| 2026-04-30 14:05 | 30.51167 | 120.36051 | 17803 ft | 272 kts | 302° |
| 2026-04-30 14:06 | 30.52202 | 120.34202 | 17823 ft | 274 kts | 302° |
| 2026-04-30 14:06 | 30.55082 | 120.31355 | 17825 ft | 290 kts | 339° |
| 2026-04-30 14:07 | 30.59205 | 120.32192 | 17834 ft | 329 kts | 24° |
| 2026-04-30 14:07 | 30.61024 | 120.33828 | 17818 ft | 330 kts | 32° |
| 2026-04-30 14:07 | 30.62658 | 120.35744 | 17812 ft | 336 kts | 37° |
| 2026-04-30 14:08 | 30.66070 | 120.39476 | 17828 ft | 339 kts | 32° |
| 2026-04-30 14:08 | 30.67799 | 120.41299 | 17824 ft | 339 kts | 32° |
| 2026-04-30 14:08 | 30.71291 | 120.44990 | 17816 ft | 340 kts | 33° |
| 2026-04-30 14:09 | 30.72807 | 120.47170 | 17803 ft | 358 kts | 53° |
| 2026-04-30 14:09 | 30.73630 | 120.49951 | 17816 ft | 372 kts | 76° |